6CO1 weather

Burnham Field
Wellington, Colorado, United States

Public forecast

Using degrees Fahrenheit for public forecast. Weather courtesy of forecast.io.

METAR (pilot weather report)

Closest report is Northern Colorado Regional Airport, 20.2 nm (37.5 km) SSW. Retrieved 2019/09/17 00:56 UTC (19 minutes ago):

KFNL 170056Z AUTO 19005KT 10SM CLR 27/02 A2991 RMK AO2 SLP068 T02670022

TAF (pilot weather forecast)

Forecast is more than 12 hours old.

Closest forecast is Cheyenne Regional Jerry Olson Field, 23.0 nm (42.5 km) NNE. Retrieved 2019/09/16 00:36 UTC (1 day ago):

TAF KCYS 162332Z 1700/1724 28008KT P6SM BKN100 FM171500 25015G25KT P6SM SCT150